Saransk, Russia
Current Conditions -  °F | °C
As of 7:00 AM on Sunday 26 Oct 2014 (Local Time) from UWLW Reporting Station
Overcast Overcast  
Wind Chill: 13°   Ceiling: 2800
Heat Index: 23°   Visibility: 5mi
Dew Point: 12°   Wind: 9mph
Humidity: 63%   Direction: 10°N
Pressure: 30.59"   Gusts: NA
Location:  54.18°N, 45.18°E
Report Text: UWLW 260400Z 01004MPS 8000 OVC028CB M05/M11 Q1036 20CLRD60NOSIG RMK QFE771
Loading
Personal Weather Stations






























Interactive Weather Map
Tropical Storm Tracking
New forecast layout! Learn more

10-Day Weather Forecast

Advertisements
Track Severe Weather on mobile